Terminal Aerodrome Forecast
Issued by NWS

Home | Current Version | Previous Version | Text Only | Print | Product List | Glossary On
Versions: 1 2 3 4 5 6 7 8 9 10 11 12 13 14 15 16 17 18 19 20 21 22 23 24 25 26
000
FTUS44 KOUN 041729
TAFLAW
TAF
KLAW 041729Z 0418/0518 17015G23KT P6SM SCT050 SCT250
     FM050100 15011KT P6SM SCT040 BKN100
     FM050900 13008KT P6SM BKN030=

USA.gov is the U.S. government's official web portal to all federal, state and local government web resources and services.